sensor_id;sensor_type;location;lat;lon;timestamp;P1;durP1;ratioP1;P2;durP2;ratioP2
54679;SDS011;40578;53.178;5.846;2022-11-14T00:00:12;42.13;;;20.30;;
54679;SDS011;40578;53.178;5.846;2022-11-14T00:02:39;42.22;;;20.13;;
54679;SDS011;40578;53.178;5.846;2022-11-14T00:05:05;43.10;;;20.90;;
54679;SDS011;40578;53.178;5.846;2022-11-14T00:07:32;42.10;;;20.80;;
54679;SDS011;40578;53.178;5.846;2022-11-14T00:09:58;47.90;;;22.50;;
54679;SDS011;40578;53.178;5.846;2022-11-14T00:12:24;40.07;;;19.83;;
54679;SDS011;40578;53.178;5.846;2022-11-14T00:14:49;43.50;;;20.93;;
54679;SDS011;40578;53.178;5.846;2022-11-14T00:17:15;44.47;;;21.73;;
54679;SDS011;40578;53.178;5.846;2022-11-14T00:19:41;45.10;;;22.75;;
54679;SDS011;40578;53.178;5.846;2022-11-14T00:22:07;45.37;;;22.03;;
54679;SDS011;40578;53.178;5.846;2022-11-14T00:24:33;44.17;;;22.43;;
54679;SDS011;40578;53.178;5.846;2022-11-14T00:26:59;44.37;;;21.03;;
54679;SDS011;40578;53.178;5.846;2022-11-14T00:29:24;42.13;;;21.50;;
54679;SDS011;40578;53.178;5.846;2022-11-14T00:31:50;44.97;;;21.67;;
54679;SDS011;40578;53.178;5.846;2022-11-14T00:34:15;51.13;;;22.13;;
54679;SDS011;40578;53.178;5.846;2022-11-14T00:36:41;40.23;;;20.40;;
54679;SDS011;40578;53.178;5.846;2022-11-14T00:39:10;40.50;;;19.40;;
54679;SDS011;40578;53.178;5.846;2022-11-14T00:41:36;47.20;;;21.60;;
54679;SDS011;40578;53.178;5.846;2022-11-14T00:44:02;47.77;;;22.33;;
54679;SDS011;40578;53.178;5.846;2022-11-14T00:46:27;49.23;;;20.87;;
54679;SDS011;40578;53.178;5.846;2022-11-14T00:48:53;45.67;;;20.43;;
54679;SDS011;40578;53.178;5.846;2022-11-14T00:51:19;43.03;;;20.70;;
54679;SDS011;40578;53.178;5.846;2022-11-14T00:53:44;46.50;;;21.87;;
54679;SDS011;40578;53.178;5.846;2022-11-14T00:56:10;44.53;;;21.30;;
54679;SDS011;40578;53.178;5.846;2022-11-14T00:58:35;44.23;;;21.50;;
54679;SDS011;40578;53.178;5.846;2022-11-14T01:01:02;46.70;;;21.73;;
54679;SDS011;40578;53.178;5.846;2022-11-14T01:03:28;45.08;;;21.90;;
54679;SDS011;40578;53.178;5.846;2022-11-14T01:05:55;44.57;;;21.87;;
54679;SDS011;40578;53.178;5.846;2022-11-14T01:08:21;41.55;;;20.52;;
54679;SDS011;40578;53.178;5.846;2022-11-14T01:10:49;43.10;;;21.40;;
54679;SDS011;40578;53.178;5.846;2022-11-14T01:13:16;45.78;;;21.15;;
54679;SDS011;40578;53.178;5.846;2022-11-14T01:15:46;42.10;;;20.98;;
54679;SDS011;40578;53.178;5.846;2022-11-14T01:18:14;46.60;;;21.98;;
54679;SDS011;40578;53.178;5.846;2022-11-14T01:20:42;43.53;;;22.02;;
54679;SDS011;40578;53.178;5.846;2022-11-14T01:23:09;38.42;;;21.27;;
54679;SDS011;40578;53.178;5.846;2022-11-14T01:25:36;41.65;;;21.33;;
54679;SDS011;40578;53.178;5.846;2022-11-14T01:28:06;45.38;;;21.83;;
54679;SDS011;40578;53.178;5.846;2022-11-14T01:30:33;43.42;;;22.08;;
54679;SDS011;40578;53.178;5.846;2022-11-14T01:33:00;40.00;;;21.15;;
54679;SDS011;40578;53.178;5.846;2022-11-14T01:35:26;42.97;;;21.40;;
54679;SDS011;40578;53.178;5.846;2022-11-14T01:37:52;40.83;;;21.93;;
54679;SDS011;40578;53.178;5.846;2022-11-14T01:40:20;42.63;;;21.77;;
54679;SDS011;40578;53.178;5.846;2022-11-14T01:51:02;34.55;;;19.92;;
54679;SDS011;40578;53.178;5.846;2022-11-14T01:53:47;39.05;;;19.95;;
54679;SDS011;40578;53.178;5.846;2022-11-14T01:56:16;38.80;;;20.88;;
54679;SDS011;40578;53.178;5.846;2022-11-14T01:58:46;39.47;;;21.38;;
54679;SDS011;40578;53.178;5.846;2022-11-14T02:01:22;38.17;;;20.70;;
54679;SDS011;40578;53.178;5.846;2022-11-14T02:03:50;39.38;;;21.00;;
54679;SDS011;40578;53.178;5.846;2022-11-14T02:06:20;38.08;;;21.23;;
54679;SDS011;40578;53.178;5.846;2022-11-14T02:08:48;42.00;;;21.77;;
54679;SDS011;40578;53.178;5.846;2022-11-14T02:11:14;41.22;;;21.83;;
54679;SDS011;40578;53.178;5.846;2022-11-14T02:13:40;38.40;;;21.30;;
54679;SDS011;40578;53.178;5.846;2022-11-14T02:16:06;36.67;;;19.57;;
54679;SDS011;40578;53.178;5.846;2022-11-14T02:18:32;36.27;;;20.80;;
54679;SDS011;40578;53.178;5.846;2022-11-14T02:20:57;40.93;;;22.20;;
54679;SDS011;40578;53.178;5.846;2022-11-14T02:23:27;39.97;;;23.00;;
54679;SDS011;40578;53.178;5.846;2022-11-14T02:25:55;41.15;;;21.92;;
54679;SDS011;40578;53.178;5.846;2022-11-14T02:28:21;39.22;;;21.73;;
54679;SDS011;40578;53.178;5.846;2022-11-14T02:30:47;44.50;;;23.20;;
54679;SDS011;40578;53.178;5.846;2022-11-14T02:33:13;41.15;;;22.00;;
54679;SDS011;40578;53.178;5.846;2022-11-14T02:35:39;39.00;;;22.33;;
54679;SDS011;40578;53.178;5.846;2022-11-14T02:38:05;41.72;;;22.73;;
54679;SDS011;40578;53.178;5.846;2022-11-14T02:40:31;42.33;;;23.23;;
54679;SDS011;40578;53.178;5.846;2022-11-14T02:42:57;38.30;;;23.33;;
54679;SDS011;40578;53.178;5.846;2022-11-14T02:45:22;43.93;;;22.97;;
54679;SDS011;40578;53.178;5.846;2022-11-14T02:47:48;45.23;;;24.50;;
54679;SDS011;40578;53.178;5.846;2022-11-14T02:50:14;42.50;;;23.03;;
54679;SDS011;40578;53.178;5.846;2022-11-14T02:52:40;46.20;;;25.13;;
54679;SDS011;40578;53.178;5.846;2022-11-14T02:55:06;46.53;;;25.23;;
54679;SDS011;40578;53.178;5.846;2022-11-14T02:57:32;44.22;;;24.40;;
54679;SDS011;40578;53.178;5.846;2022-11-14T02:59:58;44.57;;;26.03;;
54679;SDS011;40578;53.178;5.846;2022-11-14T03:02:23;43.67;;;24.33;;
54679;SDS011;40578;53.178;5.846;2022-11-14T03:04:49;44.07;;;22.57;;
54679;SDS011;40578;53.178;5.846;2022-11-14T03:07:15;50.67;;;25.30;;
54679;SDS011;40578;53.178;5.846;2022-11-14T03:09:42;48.37;;;26.60;;
54679;SDS011;40578;53.178;5.846;2022-11-14T03:12:07;50.92;;;26.40;;
54679;SDS011;40578;53.178;5.846;2022-11-14T03:14:34;54.10;;;27.60;;
54679;SDS011;40578;53.178;5.846;2022-11-14T03:16:59;57.07;;;28.77;;
54679;SDS011;40578;53.178;5.846;2022-11-14T03:19:26;54.67;;;28.63;;
54679;SDS011;40578;53.178;5.846;2022-11-14T03:21:52;50.60;;;26.90;;
54679;SDS011;40578;53.178;5.846;2022-11-14T03:24:18;54.20;;;27.03;;
54679;SDS011;40578;53.178;5.846;2022-11-14T03:26:44;52.53;;;27.57;;
54679;SDS011;40578;53.178;5.846;2022-11-14T03:29:10;51.42;;;27.33;;
54679;SDS011;40578;53.178;5.846;2022-11-14T03:31:36;52.53;;;27.90;;
54679;SDS011;40578;53.178;5.846;2022-11-14T03:34:01;58.87;;;30.77;;
54679;SDS011;40578;53.178;5.846;2022-11-14T03:36:28;56.33;;;31.63;;
54679;SDS011;40578;53.178;5.846;2022-11-14T03:38:53;57.97;;;28.67;;
54679;SDS011;40578;53.178;5.846;2022-11-14T03:41:20;63.17;;;30.97;;
54679;SDS011;40578;53.178;5.846;2022-11-14T03:43:46;59.00;;;30.42;;
54679;SDS011;40578;53.178;5.846;2022-11-14T03:46:11;59.37;;;31.70;;
54679;SDS011;40578;53.178;5.846;2022-11-14T03:48:37;66.83;;;33.50;;
54679;SDS011;40578;53.178;5.846;2022-11-14T03:51:03;63.47;;;33.47;;
54679;SDS011;40578;53.178;5.846;2022-11-14T03:53:29;64.43;;;33.50;;
54679;SDS011;40578;53.178;5.846;2022-11-14T03:55:55;66.57;;;35.20;;
54679;SDS011;40578;53.178;5.846;2022-11-14T03:58:20;66.10;;;32.87;;
54679;SDS011;40578;53.178;5.846;2022-11-14T04:00:46;61.43;;;32.27;;
54679;SDS011;40578;53.178;5.846;2022-11-14T04:03:12;66.87;;;35.27;;
54679;SDS011;40578;53.178;5.846;2022-11-14T04:05:42;64.40;;;34.17;;
54679;SDS011;40578;53.178;5.846;2022-11-14T04:08:11;66.05;;;34.60;;
54679;SDS011;40578;53.178;5.846;2022-11-14T04:10:36;67.40;;;34.83;;
54679;SDS011;40578;53.178;5.846;2022-11-14T04:13:02;63.37;;;33.73;;
54679;SDS011;40578;53.178;5.846;2022-11-14T04:15:29;59.15;;;32.25;;
54679;SDS011;40578;53.178;5.846;2022-11-14T04:17:54;65.90;;;33.53;;
54679;SDS011;40578;53.178;5.846;2022-11-14T04:20:20;73.37;;;34.87;;
54679;SDS011;40578;53.178;5.846;2022-11-14T04:22:46;66.37;;;34.77;;
54679;SDS011;40578;53.178;5.846;2022-11-14T04:25:11;68.93;;;35.80;;
54679;SDS011;40578;53.178;5.846;2022-11-14T04:27:37;68.90;;;34.60;;
54679;SDS011;40578;53.178;5.846;2022-11-14T04:30:03;64.90;;;36.00;;
54679;SDS011;40578;53.178;5.846;2022-11-14T04:32:29;72.00;;;38.25;;
54679;SDS011;40578;53.178;5.846;2022-11-14T04:34:55;72.53;;;36.30;;
54679;SDS011;40578;53.178;5.846;2022-11-14T04:37:21;72.20;;;36.90;;
54679;SDS011;40578;53.178;5.846;2022-11-14T04:39:46;71.67;;;37.00;;
54679;SDS011;40578;53.178;5.846;2022-11-14T04:42:12;69.57;;;34.67;;
54679;SDS011;40578;53.178;5.846;2022-11-14T04:44:38;70.50;;;36.47;;
54679;SDS011;40578;53.178;5.846;2022-11-14T04:47:03;70.00;;;36.70;;
54679;SDS011;40578;53.178;5.846;2022-11-14T04:49:30;67.00;;;36.70;;
54679;SDS011;40578;53.178;5.846;2022-11-14T04:51:56;64.32;;;34.70;;
54679;SDS011;40578;53.178;5.846;2022-11-14T04:54:21;73.53;;;36.70;;
54679;SDS011;40578;53.178;5.846;2022-11-14T04:56:47;66.13;;;35.27;;
54679;SDS011;40578;53.178;5.846;2022-11-14T04:59:13;68.10;;;35.17;;
54679;SDS011;40578;53.178;5.846;2022-11-14T05:01:39;69.07;;;35.03;;
54679;SDS011;40578;53.178;5.846;2022-11-14T05:04:04;67.60;;;35.57;;
54679;SDS011;40578;53.178;5.846;2022-11-14T05:06:30;67.53;;;36.27;;
54679;SDS011;40578;53.178;5.846;2022-11-14T05:08:56;70.93;;;35.37;;
54679;SDS011;40578;53.178;5.846;2022-11-14T05:11:21;71.83;;;36.57;;
54679;SDS011;40578;53.178;5.846;2022-11-14T05:13:47;68.70;;;37.03;;
54679;SDS011;40578;53.178;5.846;2022-11-14T05:16:13;68.33;;;35.20;;
54679;SDS011;40578;53.178;5.846;2022-11-14T05:18:39;66.33;;;34.27;;
54679;SDS011;40578;53.178;5.846;2022-11-14T05:21:05;70.97;;;35.17;;
54679;SDS011;40578;53.178;5.846;2022-11-14T05:23:30;67.35;;;35.28;;
54679;SDS011;40578;53.178;5.846;2022-11-14T05:26:04;64.47;;;36.07;;
54679;SDS011;40578;53.178;5.846;2022-11-14T05:28:34;69.40;;;36.35;;
54679;SDS011;40578;53.178;5.846;2022-11-14T05:31:07;68.57;;;35.70;;
54679;SDS011;40578;53.178;5.846;2022-11-14T05:33:34;66.97;;;34.50;;
54679;SDS011;40578;53.178;5.846;2022-11-14T05:36:07;67.37;;;34.37;;
54679;SDS011;40578;53.178;5.846;2022-11-14T05:38:34;71.90;;;36.15;;
54679;SDS011;40578;53.178;5.846;2022-11-14T05:41:07;68.70;;;36.07;;
54679;SDS011;40578;53.178;5.846;2022-11-14T05:43:34;67.32;;;34.50;;
54679;SDS011;40578;53.178;5.846;2022-11-14T05:46:00;68.13;;;33.80;;
54679;SDS011;40578;53.178;5.846;2022-11-14T05:48:27;66.65;;;33.92;;
54679;SDS011;40578;53.178;5.846;2022-11-14T05:50:54;72.25;;;34.75;;
54679;SDS011;40578;53.178;5.846;2022-11-14T05:53:20;70.95;;;35.15;;
54679;SDS011;40578;53.178;5.846;2022-11-14T05:55:46;74.60;;;35.97;;
54679;SDS011;40578;53.178;5.846;2022-11-14T05:58:11;64.43;;;34.10;;
54679;SDS011;40578;53.178;5.846;2022-11-14T06:00:37;68.77;;;35.93;;
54679;SDS011;40578;53.178;5.846;2022-11-14T06:03:03;68.13;;;36.03;;
54679;SDS011;40578;53.178;5.846;2022-11-14T06:05:28;70.53;;;37.10;;
54679;SDS011;40578;53.178;5.846;2022-11-14T06:07:54;70.63;;;36.43;;
54679;SDS011;40578;53.178;5.846;2022-11-14T06:10:22;66.13;;;34.42;;
54679;SDS011;40578;53.178;5.846;2022-11-14T06:12:47;70.97;;;35.22;;
54679;SDS011;40578;53.178;5.846;2022-11-14T06:15:15;71.30;;;36.50;;
54679;SDS011;40578;53.178;5.846;2022-11-14T06:17:42;66.20;;;34.92;;
54679;SDS011;40578;53.178;5.846;2022-11-14T06:20:08;66.93;;;35.07;;
54679;SDS011;40578;53.178;5.846;2022-11-14T06:22:35;64.28;;;34.28;;
54679;SDS011;40578;53.178;5.846;2022-11-14T06:25:01;61.78;;;34.33;;
54679;SDS011;40578;53.178;5.846;2022-11-14T06:27:27;63.85;;;34.28;;
54679;SDS011;40578;53.178;5.846;2022-11-14T06:29:52;72.07;;;35.87;;
54679;SDS011;40578;53.178;5.846;2022-11-14T06:32:18;65.63;;;35.60;;
54679;SDS011;40578;53.178;5.846;2022-11-14T06:34:43;70.97;;;36.20;;
54679;SDS011;40578;53.178;5.846;2022-11-14T06:37:09;70.80;;;36.03;;
54679;SDS011;40578;53.178;5.846;2022-11-14T06:39:35;67.80;;;34.87;;
54679;SDS011;40578;53.178;5.846;2022-11-14T06:42:00;71.40;;;36.17;;
54679;SDS011;40578;53.178;5.846;2022-11-14T06:44:26;66.30;;;34.77;;
54679;SDS011;40578;53.178;5.846;2022-11-14T06:46:51;68.37;;;35.47;;
54679;SDS011;40578;53.178;5.846;2022-11-14T06:49:17;68.83;;;36.27;;
54679;SDS011;40578;53.178;5.846;2022-11-14T06:51:42;66.97;;;35.83;;
54679;SDS011;40578;53.178;5.846;2022-11-14T06:54:11;66.43;;;35.30;;
54679;SDS011;40578;53.178;5.846;2022-11-14T06:56:37;71.47;;;35.97;;
54679;SDS011;40578;53.178;5.846;2022-11-14T06:59:02;70.87;;;35.63;;
54679;SDS011;40578;53.178;5.846;2022-11-14T07:01:28;70.27;;;36.07;;
54679;SDS011;40578;53.178;5.846;2022-11-14T07:03:54;73.10;;;36.57;;
54679;SDS011;40578;53.178;5.846;2022-11-14T07:06:23;69.35;;;36.35;;
54679;SDS011;40578;53.178;5.846;2022-11-14T07:08:52;66.35;;;35.30;;
54679;SDS011;40578;53.178;5.846;2022-11-14T07:11:20;70.00;;;35.75;;
54679;SDS011;40578;53.178;5.846;2022-11-14T07:13:51;70.45;;;36.40;;
54679;SDS011;40578;53.178;5.846;2022-11-14T07:16:18;73.43;;;36.83;;
54679;SDS011;40578;53.178;5.846;2022-11-14T07:18:44;67.25;;;36.25;;
54679;SDS011;40578;53.178;5.846;2022-11-14T07:21:10;67.70;;;35.35;;
54679;SDS011;40578;53.178;5.846;2022-11-14T07:26:04;71.63;;;35.38;;
54679;SDS011;40578;53.178;5.846;2022-11-14T07:28:32;66.38;;;36.22;;
54679;SDS011;40578;53.178;5.846;2022-11-14T07:30:58;62.65;;;34.10;;
54679;SDS011;40578;53.178;5.846;2022-11-14T07:33:26;62.80;;;33.50;;
54679;SDS011;40578;53.178;5.846;2022-11-14T07:35:53;67.72;;;34.42;;
54679;SDS011;40578;53.178;5.846;2022-11-14T07:38:19;69.53;;;34.47;;
54679;SDS011;40578;53.178;5.846;2022-11-14T07:40:57;61.10;;;33.50;;
54679;SDS011;40578;53.178;5.846;2022-11-14T07:43:24;59.05;;;33.50;;
54679;SDS011;40578;53.178;5.846;2022-11-14T07:45:50;67.10;;;35.75;;
54679;SDS011;40578;53.178;5.846;2022-11-14T07:48:16;63.60;;;35.43;;
54679;SDS011;40578;53.178;5.846;2022-11-14T07:50:42;71.63;;;36.13;;
54679;SDS011;40578;53.178;5.846;2022-11-14T07:53:08;68.88;;;36.25;;
54679;SDS011;40578;53.178;5.846;2022-11-14T07:55:34;68.63;;;36.70;;
54679;SDS011;40578;53.178;5.846;2022-11-14T07:58:00;66.97;;;34.92;;
54679;SDS011;40578;53.178;5.846;2022-11-14T08:00:26;71.03;;;36.33;;
54679;SDS011;40578;53.178;5.846;2022-11-14T08:02:52;65.70;;;33.47;;
54679;SDS011;40578;53.178;5.846;2022-11-14T08:05:17;61.73;;;33.60;;
54679;SDS011;40578;53.178;5.846;2022-11-14T08:07:43;68.03;;;35.77;;
54679;SDS011;40578;53.178;5.846;2022-11-14T08:10:10;68.60;;;36.60;;
54679;SDS011;40578;53.178;5.846;2022-11-14T08:12:37;65.57;;;34.22;;
54679;SDS011;40578;53.178;5.846;2022-11-14T08:15:04;70.97;;;36.07;;
54679;SDS011;40578;53.178;5.846;2022-11-14T08:17:34;66.28;;;33.47;;
54679;SDS011;40578;53.178;5.846;2022-11-14T08:20:00;64.70;;;34.77;;
54679;SDS011;40578;53.178;5.846;2022-11-14T08:22:26;65.47;;;35.60;;
54679;SDS011;40578;53.178;5.846;2022-11-14T08:24:51;67.27;;;34.10;;
54679;SDS011;40578;53.178;5.846;2022-11-14T08:27:17;66.47;;;35.90;;
54679;SDS011;40578;53.178;5.846;2022-11-14T08:29:42;64.60;;;34.77;;
54679;SDS011;40578;53.178;5.846;2022-11-14T08:32:08;68.60;;;35.50;;
54679;SDS011;40578;53.178;5.846;2022-11-14T08:34:34;65.97;;;34.80;;
54679;SDS011;40578;53.178;5.846;2022-11-14T08:37:00;68.15;;;34.67;;
54679;SDS011;40578;53.178;5.846;2022-11-14T08:39:27;69.75;;;34.67;;
54679;SDS011;40578;53.178;5.846;2022-11-14T08:41:53;65.53;;;34.70;;
54679;SDS011;40578;53.178;5.846;2022-11-14T08:44:18;65.00;;;35.37;;
54679;SDS011;40578;53.178;5.846;2022-11-14T08:46:44;64.47;;;34.00;;
54679;SDS011;40578;53.178;5.846;2022-11-14T08:49:09;71.17;;;36.20;;
54679;SDS011;40578;53.178;5.846;2022-11-14T08:51:35;67.27;;;35.03;;
54679;SDS011;40578;53.178;5.846;2022-11-14T08:54:01;63.60;;;33.53;;
54679;SDS011;40578;53.178;5.846;2022-11-14T08:56:27;68.00;;;35.00;;
54679;SDS011;40578;53.178;5.846;2022-11-14T08:58:52;68.23;;;35.40;;
54679;SDS011;40578;53.178;5.846;2022-11-14T09:01:18;67.50;;;32.60;;
54679;SDS011;40578;53.178;5.846;2022-11-14T09:03:43;69.03;;;33.37;;
54679;SDS011;40578;53.178;5.846;2022-11-14T09:06:09;70.03;;;35.73;;
54679;SDS011;40578;53.178;5.846;2022-11-14T09:08:35;62.17;;;33.73;;
54679;SDS011;40578;53.178;5.846;2022-11-14T09:11:00;66.93;;;34.47;;
54679;SDS011;40578;53.178;5.846;2022-11-14T09:13:27;69.97;;;34.60;;
54679;SDS011;40578;53.178;5.846;2022-11-14T09:15:53;64.38;;;34.78;;
54679;SDS011;40578;53.178;5.846;2022-11-14T09:18:19;65.20;;;33.63;;
54679;SDS011;40578;53.178;5.846;2022-11-14T09:20:44;66.47;;;34.30;;
54679;SDS011;40578;53.178;5.846;2022-11-14T09:23:10;69.13;;;35.17;;
54679;SDS011;40578;53.178;5.846;2022-11-14T09:25:36;70.77;;;35.30;;
54679;SDS011;40578;53.178;5.846;2022-11-14T09:28:05;71.27;;;36.17;;
54679;SDS011;40578;53.178;5.846;2022-11-14T09:30:31;67.53;;;34.33;;
54679;SDS011;40578;53.178;5.846;2022-11-14T09:35:25;70.37;;;33.33;;
54679;SDS011;40578;53.178;5.846;2022-11-14T09:37:58;72.80;;;35.97;;
54679;SDS011;40578;53.178;5.846;2022-11-14T09:40:24;66.15;;;34.72;;
54679;SDS011;40578;53.178;5.846;2022-11-14T09:43:04;67.83;;;34.77;;
54679;SDS011;40578;53.178;5.846;2022-11-14T09:45:50;64.30;;;33.47;;
54679;SDS011;40578;53.178;5.846;2022-11-14T09:48:18;68.50;;;33.85;;
54679;SDS011;40578;53.178;5.846;2022-11-14T09:50:53;69.93;;;35.63;;
54679;SDS011;40578;53.178;5.846;2022-11-14T09:53:33;70.05;;;35.20;;
54679;SDS011;40578;53.178;5.846;2022-11-14T09:56:11;67.50;;;34.60;;
54679;SDS011;40578;53.178;5.846;2022-11-14T09:58:39;66.18;;;35.40;;
54679;SDS011;40578;53.178;5.846;2022-11-14T10:06:48;64.20;;;33.20;;
54679;SDS011;40578;53.178;5.846;2022-11-14T10:11:49;63.40;;;33.47;;
54679;SDS011;40578;53.178;5.846;2022-11-14T10:22:56;62.88;;;33.35;;
54679;SDS011;40578;53.178;5.846;2022-11-14T10:25:25;58.47;;;31.10;;
54679;SDS011;40578;53.178;5.846;2022-11-14T10:30:50;60.95;;;33.10;;
54679;SDS011;40578;53.178;5.846;2022-11-14T10:38:53;55.55;;;31.08;;
54679;SDS011;40578;53.178;5.846;2022-11-14T10:41:29;55.22;;;32.00;;
54679;SDS011;40578;53.178;5.846;2022-11-14T10:43:55;55.57;;;30.77;;
54679;SDS011;40578;53.178;5.846;2022-11-14T10:46:22;57.90;;;32.42;;
54679;SDS011;40578;53.178;5.846;2022-11-14T10:48:58;56.15;;;30.35;;
54679;SDS011;40578;53.178;5.846;2022-11-14T10:51:37;55.67;;;32.25;;
54679;SDS011;40578;53.178;5.846;2022-11-14T10:54:18;55.05;;;31.77;;
54679;SDS011;40578;53.178;5.846;2022-11-14T10:56:49;55.88;;;30.67;;
54679;SDS011;40578;53.178;5.846;2022-11-14T10:59:17;53.20;;;30.38;;
54679;SDS011;40578;53.178;5.846;2022-11-14T11:01:44;52.58;;;29.58;;
54679;SDS011;40578;53.178;5.846;2022-11-14T11:04:26;50.47;;;30.13;;
54679;SDS011;40578;53.178;5.846;2022-11-14T11:07:34;55.10;;;31.33;;
54679;SDS011;40578;53.178;5.846;2022-11-14T11:10:03;54.38;;;29.63;;
54679;SDS011;40578;53.178;5.846;2022-11-14T11:12:49;54.03;;;31.05;;
54679;SDS011;40578;53.178;5.846;2022-11-14T11:18:02;52.05;;;30.63;;
54679;SDS011;40578;53.178;5.846;2022-11-14T11:20:40;47.10;;;28.95;;
54679;SDS011;40578;53.178;5.846;2022-11-14T11:23:13;49.22;;;29.17;;
54679;SDS011;40578;53.178;5.846;2022-11-14T11:25:52;50.88;;;29.20;;
54679;SDS011;40578;53.178;5.846;2022-11-14T11:28:32;48.83;;;29.67;;
54679;SDS011;40578;53.178;5.846;2022-11-14T11:31:00;54.00;;;30.92;;
54679;SDS011;40578;53.178;5.846;2022-11-14T11:33:29;51.53;;;30.30;;
54679;SDS011;40578;53.178;5.846;2022-11-14T11:36:00;49.03;;;29.25;;
54679;SDS011;40578;53.178;5.846;2022-11-14T11:38:30;49.65;;;28.90;;
54679;SDS011;40578;53.178;5.846;2022-11-14T11:41:13;52.17;;;30.75;;
54679;SDS011;40578;53.178;5.846;2022-11-14T11:43:53;52.20;;;29.58;;
54679;SDS011;40578;53.178;5.846;2022-11-14T11:46:23;50.20;;;30.35;;
54679;SDS011;40578;53.178;5.846;2022-11-14T11:51:44;48.78;;;30.10;;
54679;SDS011;40578;53.178;5.846;2022-11-14T11:54:15;47.17;;;29.02;;
54679;SDS011;40578;53.178;5.846;2022-11-14T11:56:46;53.47;;;30.13;;
54679;SDS011;40578;53.178;5.846;2022-11-14T11:59:18;48.05;;;29.35;;
54679;SDS011;40578;53.178;5.846;2022-11-14T12:01:49;49.05;;;28.55;;
54679;SDS011;40578;53.178;5.846;2022-11-14T12:04:16;45.70;;;28.20;;
54679;SDS011;40578;53.178;5.846;2022-11-14T12:06:44;46.67;;;28.90;;
54679;SDS011;40578;53.178;5.846;2022-11-14T12:09:20;47.50;;;28.20;;
54679;SDS011;40578;53.178;5.846;2022-11-14T12:11:56;46.53;;;28.38;;
54679;SDS011;40578;53.178;5.846;2022-11-14T12:20:52;46.88;;;28.17;;
54679;SDS011;40578;53.178;5.846;2022-11-14T12:23:44;46.50;;;28.30;;
54679;SDS011;40578;53.178;5.846;2022-11-14T12:32:04;46.60;;;29.70;;
54679;SDS011;40578;53.178;5.846;2022-11-14T12:34:39;45.08;;;27.52;;
54679;SDS011;40578;53.178;5.846;2022-11-14T12:37:10;47.42;;;27.38;;
54679;SDS011;40578;53.178;5.846;2022-11-14T12:39:44;48.25;;;28.42;;
54679;SDS011;40578;53.178;5.846;2022-11-14T12:42:30;46.72;;;27.95;;
54679;SDS011;40578;53.178;5.846;2022-11-14T12:44:56;44.47;;;28.17;;
54679;SDS011;40578;53.178;5.846;2022-11-14T12:47:23;45.07;;;28.13;;
54679;SDS011;40578;53.178;5.846;2022-11-14T13:00:54;46.13;;;28.67;;
54679;SDS011;40578;53.178;5.846;2022-11-14T13:06:25;44.30;;;27.48;;
54679;SDS011;40578;53.178;5.846;2022-11-14T13:09:07;45.30;;;27.52;;
54679;SDS011;40578;53.178;5.846;2022-11-14T13:11:54;47.05;;;28.25;;
54679;SDS011;40578;53.178;5.846;2022-11-14T13:14:48;42.83;;;28.52;;
54679;SDS011;40578;53.178;5.846;2022-11-14T13:17:34;47.88;;;29.33;;
54679;SDS011;40578;53.178;5.846;2022-11-14T13:20:25;45.17;;;27.77;;
54679;SDS011;40578;53.178;5.846;2022-11-14T13:26:33;45.45;;;27.73;;
54679;SDS011;40578;53.178;5.846;2022-11-14T13:33:52;44.28;;;27.85;;
54679;SDS011;40578;53.178;5.846;2022-11-14T13:36:26;41.75;;;27.10;;
54679;SDS011;40578;53.178;5.846;2022-11-14T13:47:44;43.45;;;28.38;;
54679;SDS011;40578;53.178;5.846;2022-11-14T13:50:40;45.10;;;27.42;;
54679;SDS011;40578;53.178;5.846;2022-11-14T13:53:16;47.63;;;27.25;;
54679;SDS011;40578;53.178;5.846;2022-11-14T13:55:55;40.25;;;26.05;;
54679;SDS011;40578;53.178;5.846;2022-11-14T13:58:40;42.65;;;27.05;;
54679;SDS011;40578;53.178;5.846;2022-11-14T14:12:29;44.72;;;28.00;;
54679;SDS011;40578;53.178;5.846;2022-11-14T14:20:26;42.25;;;26.30;;
54679;SDS011;40578;53.178;5.846;2022-11-14T14:25:28;42.67;;;26.80;;
54679;SDS011;40578;53.178;5.846;2022-11-14T14:30:39;40.42;;;26.27;;
54679;SDS011;40578;53.178;5.846;2022-11-14T14:33:14;41.57;;;27.07;;
54679;SDS011;40578;53.178;5.846;2022-11-14T14:35:50;40.78;;;26.90;;
54679;SDS011;40578;53.178;5.846;2022-11-14T14:38:21;43.42;;;26.92;;
54679;SDS011;40578;53.178;5.846;2022-11-14T14:40:54;45.15;;;27.40;;
54679;SDS011;40578;53.178;5.846;2022-11-14T14:45:55;41.28;;;26.75;;
54679;SDS011;40578;53.178;5.846;2022-11-14T14:48:22;42.72;;;26.48;;
54679;SDS011;40578;53.178;5.846;2022-11-14T14:50:51;39.85;;;26.30;;
54679;SDS011;40578;53.178;5.846;2022-11-14T14:53:26;43.10;;;27.17;;
54679;SDS011;40578;53.178;5.846;2022-11-14T14:56:00;43.28;;;27.88;;
54679;SDS011;40578;53.178;5.846;2022-11-14T14:58:31;45.38;;;28.15;;
54679;SDS011;40578;53.178;5.846;2022-11-14T15:03:52;41.33;;;26.90;;
54679;SDS011;40578;53.178;5.846;2022-11-14T15:06:28;39.80;;;26.33;;
54679;SDS011;40578;53.178;5.846;2022-11-14T15:11:39;41.55;;;25.85;;
54679;SDS011;40578;53.178;5.846;2022-11-14T15:14:09;40.38;;;25.83;;
54679;SDS011;40578;53.178;5.846;2022-11-14T15:16:40;41.85;;;25.83;;
54679;SDS011;40578;53.178;5.846;2022-11-14T15:19:08;43.05;;;27.48;;
54679;SDS011;40578;53.178;5.846;2022-11-14T15:21:37;43.67;;;27.17;;
54679;SDS011;40578;53.178;5.846;2022-11-14T15:24:16;40.30;;;25.63;;
54679;SDS011;40578;53.178;5.846;2022-11-14T15:26:44;41.10;;;26.63;;
54679;SDS011;40578;53.178;5.846;2022-11-14T15:29:18;42.15;;;26.40;;
54679;SDS011;40578;53.178;5.846;2022-11-14T15:31:51;41.90;;;26.55;;
54679;SDS011;40578;53.178;5.846;2022-11-14T15:34:25;42.97;;;27.08;;
54679;SDS011;40578;53.178;5.846;2022-11-14T15:37:17;42.03;;;25.40;;
54679;SDS011;40578;53.178;5.846;2022-11-14T15:39:45;39.53;;;25.80;;
54679;SDS011;40578;53.178;5.846;2022-11-14T15:42:18;40.72;;;26.08;;
54679;SDS011;40578;53.178;5.846;2022-11-14T15:44:50;41.67;;;26.42;;
54679;SDS011;40578;53.178;5.846;2022-11-14T15:55:03;36.58;;;25.20;;
54679;SDS011;40578;53.178;5.846;2022-11-14T15:57:44;39.20;;;23.92;;
54679;SDS011;40578;53.178;5.846;2022-11-14T16:00:13;37.00;;;24.13;;
54679;SDS011;40578;53.178;5.846;2022-11-14T16:05:12;38.33;;;24.65;;
54679;SDS011;40578;53.178;5.846;2022-11-14T16:07:39;35.28;;;23.98;;
54679;SDS011;40578;53.178;5.846;2022-11-14T16:10:10;36.83;;;24.47;;
54679;SDS011;40578;53.178;5.846;2022-11-14T16:12:41;36.03;;;24.38;;
54679;SDS011;40578;53.178;5.846;2022-11-14T16:15:06;36.73;;;24.50;;
54679;SDS011;40578;53.178;5.846;2022-11-14T16:17:38;33.73;;;23.60;;
54679;SDS011;40578;53.178;5.846;2022-11-14T16:20:06;32.20;;;21.80;;
54679;SDS011;40578;53.178;5.846;2022-11-14T16:22:40;34.40;;;24.05;;
54679;SDS011;40578;53.178;5.846;2022-11-14T16:25:24;33.80;;;22.50;;
54679;SDS011;40578;53.178;5.846;2022-11-14T16:27:51;32.15;;;22.52;;
54679;SDS011;40578;53.178;5.846;2022-11-14T16:30:18;33.95;;;23.02;;
54679;SDS011;40578;53.178;5.846;2022-11-14T16:32:45;30.83;;;23.73;;
54679;SDS011;40578;53.178;5.846;2022-11-14T16:35:19;32.83;;;23.42;;
54679;SDS011;40578;53.178;5.846;2022-11-14T16:37:53;31.45;;;22.58;;